Canaan, IN (47224)

6:28 PM EDT on September 28, 2016 (GMT -0400)
APRSWXNET | | Change Station

Elev 639 ft 38.97 °N, 85.15 °W | Updated 20 minutes ago

Overcast
Overcast
55 °F
Feels Like 55 °F
N
1
Wind Variable Wind from NE
Gusts 5.0 mph

Today
High -- | Low -- °F
--% Chance of Precip.
Yesterday
High -- | Low -- °F
Precip. -- in
Pressure 29.89 in
Visibility 10.0 miles
Clouds Few 1000 ft
Mostly Cloudy 2500 ft
Overcast 4800 ft
Dew Point 52 °F
Humidity 91%
Rainfall in
Snow Depth Not available.
7:34 AM 7:27 PM
Waning Crescent, 4% visible
SPECI KCVG 282222Z 19003KT 10SM FEW010 BKN025 OVC048 16/13 A2989 RMK AO2
Pressure 29.89 in
Visibility 10.0 miles
Clouds Few 1000 ft
Mostly Cloudy 2500 ft
Overcast 4800 ft
Dew Point 52 °F
Humidity 91%
Rainfall in
Snow Depth Not available.
7:34 AM 7:27 PM
Waning Crescent, 4% visible
SPECI KCVG 282222Z 19003KT 10SM FEW010 BKN025 OVC048 16/13 A2989 RMK AO2

10-Day Weather Forecast

Almanac

Astronomy

Sep. 28, 2016 Rise Set
Actual Time
Civil Twilight
Nautical Twilight
Astronomical Twilight
Moon
Length of Visible Light
Length of Day
Tomorrow will be .
, % of the Moon is Illuminated

Today's Extremes

State Highs State Lows

Community

WunderPhotos

Upload Photos

1,942,337 photos uploaded!

WunderBlog® & News

Nearby

Air Quality

  Air Quality AQ Index Pollutant
Not available.

Snow Depth

Station Depth Elevation

Earthquake Activity

City Distance Mag. Time & Date
Minimum magnitude displayed is 2.5.

Coastal Water Temperatures

Place Temperature

Stations

Nearby Weather Stations

Station Location Temp. Windchill Dew Point Humidity Wind Precip. Elev Updated Type
                   

Watches & Warnings

There are currently no watches in effect.